Cold Water, Mississippi
Current Conditions -  °F | °C
As of 10:15 AM on Thursday 29 Jan 2015 (Local Time) from KUTA Reporting Station
Clear Clear  
Wind Chill: 59°   Ceiling: Unl
Heat Index: 59°   Visibility: 10mi
Dew Point: 48°   Wind: 12mph
Humidity: 67%   Direction: 220°SW
Pressure: 30.13"   Gusts: NA
Location:  34.6957°N, 90.0062°W
Report Text: KUTA 291615Z AUTO 22010KT 10SM CLR 15/09 A3013 RMK AO2
Loading
Personal Weather Stations






























Interactive Weather Map New forecast layout! Learn more

10-Day Weather Forecast

Advertisements
Track Severe Weather on mobile